EPH weather

Ephrata Municipal Airport
Ephrata, Washington, United States

Public forecast

Using degrees Fahrenheit for public forecast. Weather courtesy of forecast.io.

Current aviation weather report (METAR) for Ephrata Municipal Airport

Retrieved 2020/02/24 03:53 UTC (34 minutes ago):

KEPH 240353Z AUTO 25012KT 10SM CLR 04/M03 A3004 RMK AO2 SLP182 T00441028

Closest aviation forecast (TAF) to Ephrata Municipal Airport

Closest forecast is Grant County International Airport, 10.0 nm (18.5 km) SE. Retrieved 2020-02-24 00:42 UTC (4 hours ago):

TAF KMWH 232339Z 2400/2424 26022G35KT P6SM FEW060 FEW150 FM240300 24018G26KT P6SM SCT250 FM241400 22015KT P6SM SKC FM241900 27013G18KT P6SM FEW200